Terminal Aerodrome Forecast
Issued by NWS

Home | Current Version | Previous Version | Graphics & Text | Print | Product List | Glossary On
Versions: 1 2 3 4 5 6 7 8 9 10 11 12 13 14 15 16 17 18 19 20 21 22 23 24 25 26 27 28 29 30 31 32 33 34 35 36 37 38 39 40 41 42 43 44 45 46 47 48
615
FTUS43 KLOT 100300 AAA
TAFGYY
TAF AMD
KGYY 100300Z 1003/1024 27007KT P6SM FEW035 BKN120
     FM101500 25009KT P6SM BKN070
      TEMPO 1022/1023 2SM -SN BKN020
     FM102300 19007KT 1 1/2SM -SN SCT010 OVC020=

USA.gov is the U.S. government's official web portal to all federal, state and local government web resources and services.